Time;durP1;ratioP1;P1;durP2;ratioP2;P2;SDS_P1;SDS_P2;PMS_P1;PMS_P2;Temp;Humidity;BMP_temperature;BMP_pressure;BME280_temperature;BME280_humidity;BME280_pressure;Samples;Min_cycle;Max_cycle;Signal;HPM_P1;HPM_P2
2021/04/09 00:01:45;;;;;;;19.52;10.93;;;5.20;72.20;;;5.47;57.79;100694.47;4996438;28;20173;-81
2021/04/09 00:04:13;;;;;;;24.65;11.07;;;5.20;72.30;;;5.44;58.01;100689.34;4995969;28;20081;-82
2021/04/09 00:06:41;;;;;;;22.38;11.32;;;5.20;72.20;;;5.46;58.03;100687.41;4996139;28;20523;-81
2021/04/09 00:09:09;;;;;;;23.08;12.02;;;5.20;72.40;;;5.46;57.77;100682.00;4996528;28;20043;-81
2021/04/09 00:11:37;;;;;;;22.33;10.93;;;5.20;72.10;;;5.43;57.90;100682.28;4996189;28;20077;-82
2021/04/09 00:14:06;;;;;;;23.70;11.23;;;5.20;72.20;;;5.43;58.16;100681.44;4995821;28;20042;-81
2021/04/09 00:16:33;;;;;;;22.45;12.15;;;5.20;72.40;;;5.45;58.41;100680.28;4996269;28;20050;-82
2021/04/09 00:19:00;;;;;;;23.23;11.77;;;5.20;72.50;;;5.46;58.83;100667.63;4996071;28;20066;-81
2021/04/09 00:21:28;;;;;;;20.65;11.85;;;5.20;72.60;;;5.53;57.94;100667.91;4996087;28;20054;-81
2021/04/09 00:23:54;;;;;;;23.17;11.45;;;5.30;72.30;;;5.51;58.07;100664.50;4996156;28;20057;-82
2021/04/09 00:26:21;;;;;;;23.98;11.05;;;5.20;72.10;;;5.55;58.06;100663.19;4994765;28;20054;-81
2021/04/09 00:28:48;;;;;;;18.88;11.50;;;5.30;72.50;;;5.58;58.00;100665.59;4996408;28;20046;-82
2021/04/09 00:31:15;;;;;;;20.27;11.07;;;5.30;72.40;;;5.53;58.32;100659.81;4996542;28;20105;-82
2021/04/09 00:33:42;;;;;;;21.95;11.52;;;5.30;72.40;;;5.52;58.30;100658.09;4996171;28;20050;-81
2021/04/09 00:36:09;;;;;;;20.67;10.95;;;5.40;72.40;;;5.54;58.34;100656.09;4999888;28;20077;-82
2021/04/09 00:38:36;;;;;;;19.42;11.50;;;5.30;72.30;;;5.51;58.32;100653.72;4999909;28;20069;-82
2021/04/09 00:41:03;;;;;;;23.15;11.20;;;5.30;72.40;;;5.49;58.36;100660.09;5000264;28;20054;-81
2021/04/09 00:43:30;;;;;;;19.85;10.85;;;5.30;72.70;;;5.53;58.47;100651.72;4999809;28;20050;-82
2021/04/09 00:45:57;;;;;;;21.00;10.88;;;5.30;72.70;;;5.52;58.76;100650.88;5000172;28;20054;-82
2021/04/09 00:48:25;;;;;;;20.17;10.60;;;5.30;72.80;;;5.52;58.55;100647.28;4999747;28;20092;-82
2021/04/09 00:50:52;;;;;;;20.15;10.65;;;5.30;72.80;;;5.53;58.66;100654.41;4999623;28;20061;-82
2021/04/09 00:53:19;;;;;;;21.05;10.73;;;5.30;72.90;;;5.55;58.88;100641.59;4999149;28;20121;-82
2021/04/09 00:55:47;;;;;;;20.25;10.73;;;5.30;72.90;;;5.57;59.01;100643.16;5000172;28;20070;-82
2021/04/09 00:58:15;;;;;;;21.08;10.80;;;5.40;72.90;;;5.57;58.75;100635.03;5000124;28;20046;-81
2021/04/09 01:00:42;;;;;;;20.55;9.98;;;5.40;73.10;;;5.61;58.52;100638.31;4999404;28;20080;-82
2021/04/09 01:03:09;;;;;;;20.13;9.85;;;5.40;72.90;;;5.60;58.60;100639.31;4999483;28;20041;-82
2021/04/09 01:05:37;;;;;;;19.52;10.10;;;5.40;72.70;;;5.60;58.48;100633.91;4998901;28;20053;-82
2021/04/09 01:08:07;;;;;;;26.98;10.50;;;5.40;72.60;;;5.61;58.31;100630.19;4998930;28;20415;-82
2021/04/09 01:10:35;;;;;;;17.70;9.43;;;5.40;72.50;;;5.67;58.31;100629.59;4998887;28;20100;-82
2021/04/09 01:13:02;;;;;;;16.30;10.25;;;5.40;72.20;;;5.72;57.75;100626.47;4999035;28;20049;-81
2021/04/09 01:15:29;;;;;;;17.73;9.82;;;5.40;72.00;;;5.68;58.32;100631.31;4999544;28;20098;-82
2021/04/09 01:18:03;;;;;;;21.30;8.40;;;5.40;72.60;;;5.67;58.38;100627.78;4999035;28;20046;-81
2021/04/09 01:20:46;;;;;;;15.77;8.50;;;5.50;72.60;;;5.70;58.32;100629.31;4999098;28;20554;-82
2021/04/09 01:24:09;;;;;;;15.60;8.68;;;5.50;72.50;;;5.77;58.13;100624.13;4998362;28;20046;-82
2021/04/09 01:27:42;;;;;;;17.17;9.35;;;5.50;72.40;;;5.75;57.30;100621.63;4963778;28;20129;-82
2021/04/09 01:30:57;;;;;;;16.75;8.48;;;5.60;72.20;;;5.78;57.63;100621.28;4921905;28;20063;-81
2021/04/09 01:33:31;;;;;;;17.02;8.65;;;5.70;71.50;;;5.81;57.67;100614.75;4988076;28;20058;-82
2021/04/09 01:36:07;;;;;;;17.83;8.65;;;5.70;71.70;;;5.81;57.80;100610.19;4998456;28;20049;-82
2021/04/09 01:38:40;;;;;;;15.23;8.00;;;5.60;71.60;;;5.77;58.23;100602.53;4997247;28;20411;-82
2021/04/09 01:41:09;;;;;;;18.25;7.72;;;5.60;72.00;;;5.78;58.34;100593.44;4998776;28;20435;-82
2021/04/09 01:43:38;;;;;;;15.27;8.43;;;5.60;72.00;;;5.81;58.03;100596.69;4998444;28;20050;-82
2021/04/09 01:46:05;;;;;;;15.48;8.88;;;5.60;71.80;;;5.81;57.82;100595.84;4998809;28;20046;-82
2021/04/09 01:48:40;;;;;;;17.83;8.20;;;5.70;72.20;;;5.84;58.22;100588.28;4999076;28;20152;-81
2021/04/09 01:51:10;;;;;;;15.73;8.27;;;5.60;72.20;;;5.85;58.28;100590.00;4998229;28;20054;-82
2021/04/09 01:53:39;;;;;;;19.30;8.50;;;5.60;71.90;;;5.84;58.07;100585.56;4998045;28;20574;-82
2021/04/09 01:56:09;;;;;;;17.02;7.93;;;5.70;72.20;;;5.78;58.54;100583.50;4998653;28;20050;-82
2021/04/09 01:58:38;;;;;;;14.73;8.57;;;5.70;72.40;;;5.76;58.28;100572.00;4998798;28;20042;-82
2021/04/09 02:01:09;;;;;;;15.63;7.80;;;5.60;72.20;;;5.81;58.37;100572.41;4998289;28;20050;-82
2021/04/09 02:03:40;;;;;;;15.02;8.45;;;5.70;72.20;;;5.77;58.64;100562.91;4998778;28;20050;-82
2021/04/09 02:06:08;;;;;;;13.00;7.40;;;5.70;72.70;;;5.80;58.32;100556.34;4999018;28;20058;-82
2021/04/09 02:08:36;;;;;;;16.00;8.05;;;5.70;72.30;;;5.81;58.39;100556.19;4997976;28;20042;-82
2021/04/09 02:11:04;;;;;;;15.68;7.35;;;5.70;72.10;;;5.82;58.46;100559.72;4998039;28;20077;-82
2021/04/09 02:13:33;;;;;;;20.25;7.97;;;5.70;72.50;;;5.81;58.70;100556.19;4998076;28;20042;-82
2021/04/09 02:16:00;;;;;;;16.00;8.15;;;5.70;72.60;;;5.83;58.74;100556.88;4998080;28;20039;-81
2021/04/09 02:18:27;;;;;;;13.57;7.45;;;5.70;72.70;;;5.85;58.25;100543.22;4997897;28;20046;-82
2021/04/09 02:20:57;;;;;;;18.52;8.23;;;5.80;72.40;;;5.82;58.58;100541.66;4998534;28;20456;-82
2021/04/09 02:23:23;;;;;;;13.32;7.32;;;5.70;72.00;;;5.88;58.22;100545.59;4998008;28;20054;-82
2021/04/09 02:25:50;;;;;;;13.95;7.57;;;5.80;71.90;;;5.88;58.65;100541.09;4997845;28;20109;-81
2021/04/09 02:28:18;;;;;;;16.80;7.85;;;5.80;71.90;;;5.91;58.30;100539.06;4998008;28;20050;-81
2021/04/09 02:31:02;;;;;;;15.63;7.38;;;5.80;71.90;;;5.93;58.03;100537.06;4997769;28;20050;-82
2021/04/09 02:33:29;;;;;;;17.70;8.35;;;5.80;71.80;;;5.94;58.64;100530.63;4997613;28;20038;-82
2021/04/09 02:35:57;;;;;;;15.30;7.97;;;5.80;71.90;;;5.94;58.74;100536.03;4998166;28;20123;-82
2021/04/09 02:38:24;;;;;;;16.15;7.97;;;5.90;72.30;;;5.91;58.56;100528.28;4998808;28;20499;-82
2021/04/09 02:40:52;;;;;;;17.00;8.27;;;5.90;72.10;;;5.93;58.42;100534.34;4997906;28;20046;-82
2021/04/09 02:43:19;;;;;;;16.95;8.13;;;5.90;72.00;;;5.94;58.32;100522.53;4995881;28;20057;-82
2021/04/09 02:45:46;;;;;;;18.48;7.88;;;5.90;71.60;;;5.95;57.98;100524.25;4996035;28;20042;-82
2021/04/09 02:48:14;;;;;;;17.17;7.85;;;5.90;71.50;;;5.97;58.31;100517.72;4996956;28;20184;-82
2021/04/09 02:50:45;;;;;;;16.83;7.55;;;5.80;71.50;;;5.97;57.83;100514.16;4997433;28;20089;-82
2021/04/09 02:53:16;;;;;;;16.23;8.52;;;5.90;71.80;;;5.94;57.97;100512.59;4997926;28;20435;-82
2021/04/09 02:55:45;;;;;;;;;;;5.90;71.60;;;5.92;58.10;100509.22;4997702;28;20043;-82
2021/04/09 02:58:14;;;;;;;14.65;7.22;;;6.00;71.40;;;5.97;58.18;100500.66;4996080;28;19926;-82
2021/04/09 03:00:44;;;;;;;17.98;8.63;;;6.00;71.70;;;5.99;58.35;100504.06;4997848;28;20050;-82
2021/04/09 03:03:12;;;;;;;19.55;8.57;;;6.00;71.20;;;6.01;57.91;100496.63;4996836;28;20101;-82
2021/04/09 03:05:40;;;;;;;12.80;7.20;;;6.00;71.30;;;6.01;58.37;100502.03;4997608;28;20054;-81
2021/04/09 03:08:09;;;;;;;16.88;8.07;;;6.00;71.60;;;6.01;58.03;100502.03;4997460;28;20054;-82
2021/04/09 03:10:36;;;;;;;17.48;7.72;;;6.10;71.70;;;6.05;58.17;100493.50;4997951;28;20077;-82
2021/04/09 03:13:04;;;;;;;17.40;7.93;;;6.00;71.40;;;6.04;58.88;100494.47;4997282;28;20046;-81
2021/04/09 03:15:37;;;;;;;15.60;8.05;;;6.00;71.80;;;6.00;58.15;100490.41;4997803;28;20049;-81
2021/04/09 03:18:08;;;;;;;14.00;7.22;;;6.10;71.40;;;6.05;58.47;100489.91;4995439;28;20050;-82
2021/04/09 03:20:35;;;;;;;15.35;7.60;;;6.10;71.30;;;6.07;58.05;100480.66;4997581;28;20061;-81
2021/04/09 03:23:04;;;;;;;15.57;8.00;;;6.10;71.10;;;6.02;58.05;100477.59;4997211;28;20069;-82
2021/04/09 03:25:31;;;;;;;18.13;7.68;;;6.20;71.30;;;6.00;57.79;100482.28;4997457;28;20518;-82
2021/04/09 03:27:59;;;;;;;15.65;7.85;;;6.20;71.00;;;6.03;58.32;100486.53;4997285;28;20121;-82
2021/04/09 03:30:26;;;;;;;17.98;8.45;;;6.20;70.90;;;6.06;57.89;100475.41;4997874;28;20046;-82
2021/04/09 03:32:53;;;;;;;13.65;7.50;;;6.20;70.30;;;6.07;57.99;100471.69;4996935;28;20081;-81
2021/04/09 03:35:21;;;;;;;18.13;7.53;;;6.20;70.70;;;6.11;57.76;100469.53;4997518;28;20050;-81
2021/04/09 03:37:48;;;;;;;16.08;7.75;;;6.20;70.10;;;6.12;57.91;100468.53;4996875;28;20043;-82
2021/04/09 03:40:16;;;;;;;16.60;7.97;;;6.20;70.80;;;6.11;58.36;100470.41;4997637;28;20514;-82
2021/04/09 03:42:43;;;;;;;15.60;7.55;;;6.20;71.30;;;6.15;57.73;100466.38;4997061;28;20625;-81
2021/04/09 03:45:12;;;;;;;17.23;8.25;;;6.30;71.20;;;6.16;58.61;100459.13;4997522;28;20042;-81
2021/04/09 03:47:42;;;;;;;17.25;7.78;;;6.30;71.10;;;6.09;57.88;100458.03;4996936;28;20066;-81
2021/04/09 03:50:09;;;;;;;16.15;8.00;;;6.30;70.40;;;6.06;57.84;100467.31;4997230;28;20047;-81
2021/04/09 03:52:38;;;;;;;13.35;7.35;;;6.30;70.40;;;6.13;58.01;100465.69;4996850;28;20551;-82
2021/04/09 03:55:07;;;;;;;16.85;8.52;;;6.30;70.50;;;6.15;58.05;100458.28;4996905;28;20048;-82
2021/04/09 03:57:34;;;;;;;13.40;7.85;;;6.30;70.50;;;6.17;58.22;100458.97;4997219;28;20045;-81
2021/04/09 04:00:01;;;;;;;18.70;8.60;;;6.30;70.50;;;6.20;58.17;100463.19;4997349;28;20058;-82
2021/04/09 04:02:28;;;;;;;17.90;8.57;;;6.30;70.80;;;6.17;57.61;100460.78;4996255;28;20043;-82
2021/04/09 04:04:55;;;;;;;15.68;7.50;;;6.30;71.00;;;6.17;57.46;100464.38;4996453;28;20077;-82
2021/04/09 04:07:22;;;;;;;14.98;8.30;;;6.30;70.90;;;6.15;57.52;100457.41;4996958;28;20047;-82
2021/04/09 04:09:48;;;;;;;18.13;8.35;;;6.30;70.50;;;6.16;58.49;100451.84;5000634;28;20054;-82
2021/04/09 04:12:15;;;;;;;15.13;8.15;;;6.30;70.50;;;6.20;58.21;100457.78;5001131;28;20051;-81
2021/04/09 04:14:42;;;;;;;16.35;8.10;;;6.30;70.50;;;6.22;58.11;100453.06;5001043;28;20042;-82
2021/04/09 04:17:09;;;;;;;18.02;8.55;;;6.20;70.80;;;6.22;58.18;100448.50;5000975;28;20049;-81
2021/04/09 04:19:36;;;;;;;15.45;8.05;;;6.20;71.20;;;6.18;57.62;100452.53;5000600;28;20088;-81
2021/04/09 04:22:03;;;;;;;20.60;8.60;;;6.20;71.10;;;6.14;58.02;100442.22;4999740;28;20054;-82
2021/04/09 04:24:30;;;;;;;20.45;8.57;;;6.30;70.80;;;6.17;58.36;100449.97;4999969;28;20066;-81
2021/04/09 04:26:57;;;;;;;16.45;8.63;;;6.30;70.50;;;6.18;57.83;100449.84;5000166;28;20073;-82
2021/04/09 04:29:24;;;;;;;12.85;7.50;;;6.30;70.50;;;6.21;58.21;100446.81;4999772;28;20149;-82
2021/04/09 04:31:51;;;;;;;22.02;8.90;;;6.30;70.50;;;6.20;58.06;100442.41;4999982;28;20050;-81
2021/04/09 04:34:17;;;;;;;17.85;8.40;;;6.20;70.50;;;6.22;57.87;100437.69;4999642;28;20066;-81
2021/04/09 04:36:45;;;;;;;17.42;9.18;;;6.30;70.70;;;6.21;57.92;100443.28;4999325;28;20059;-82
2021/04/09 04:39:12;;;;;;;15.10;7.90;;;6.30;71.00;;;6.24;58.59;100433.00;5000202;28;20042;-81
2021/04/09 04:41:39;;;;;;;19.50;8.38;;;6.30;71.40;;;6.18;58.11;100444.44;4999746;28;20054;-82
2021/04/09 04:44:07;;;;;;;20.83;9.43;;;6.30;71.00;;;6.21;58.20;100432.47;4999632;28;20034;-81
2021/04/09 04:46:34;;;;;;;18.17;7.95;;;6.30;70.60;;;6.24;58.21;100432.13;5000375;28;20502;-81
2021/04/09 04:49:00;;;;;;;17.08;8.25;;;6.30;70.90;;;6.22;57.95;100440.41;4999827;28;20050;-81
2021/04/09 04:51:27;;;;;;;17.33;8.32;;;6.30;71.10;;;6.23;58.14;100439.41;4998469;28;20066;-81
2021/04/09 04:53:55;;;;;;;17.60;9.07;;;6.30;71.20;;;6.24;58.53;100433.00;4999020;28;20066;-82
2021/04/09 04:56:21;;;;;;;13.40;7.45;;;6.30;71.00;;;6.17;57.54;100426.53;5000026;28;20093;-81
2021/04/09 04:58:48;;;;;;;14.48;7.50;;;6.30;70.60;;;6.17;58.49;100431.06;5000112;28;20663;-82
2021/04/09 05:01:15;;;;;;;17.80;7.93;;;6.40;70.60;;;6.18;57.91;100433.63;5000395;28;20050;-81
2021/04/09 05:03:42;;;;;;;16.00;7.47;;;6.40;70.60;;;6.10;57.93;100430.88;4999419;28;20038;-82
2021/04/09 05:06:09;;;;;;;19.08;9.57;;;6.40;70.40;;;6.18;58.84;100425.50;4999899;28;20053;-82
2021/04/09 05:08:36;;;;;;;18.38;8.57;;;6.40;70.60;;;6.25;58.69;100423.88;4999374;28;20054;-81
2021/04/09 05:11:04;;;;;;;19.38;8.80;;;6.30;71.00;;;6.22;58.43;100429.59;4999560;28;20597;-82
2021/04/09 05:13:31;;;;;;;20.17;8.95;;;6.30;71.10;;;6.24;58.18;100424.91;4997713;28;20046;-80
2021/04/09 05:15:57;;;;;;;17.73;8.35;;;6.30;70.90;;;6.26;58.63;100431.00;4998146;28;20049;-80
2021/04/09 05:18:24;;;;;;;15.10;9.13;;;6.30;71.00;;;6.26;57.99;100430.13;4997077;28;20570;-81
2021/04/09 05:20:51;;;;;;;15.95;8.27;;;6.30;71.30;;;6.25;58.37;100423.88;4997198;28;20391;-81
2021/04/09 05:23:18;;;;;;;20.50;8.57;;;6.30;71.40;;;6.23;58.51;100425.91;4996827;28;20102;-84
2021/04/09 05:25:45;;;;;;;16.63;8.93;;;6.40;71.10;;;6.25;57.75;100426.59;4998634;28;20062;-84
2021/04/09 05:28:12;;;;;;;16.70;7.60;;;6.40;70.00;;;6.26;57.49;100422.03;4998872;28;20112;-84
2021/04/09 05:30:39;;;;;;;15.40;7.78;;;6.40;70.30;;;6.26;58.10;100419.31;4998851;28;20065;-84
2021/04/09 05:33:06;;;;;;;16.00;8.32;;;6.60;70.30;;;6.29;57.56;100432.53;4997960;28;20065;-84
2021/04/09 05:35:33;;;;;;;18.13;8.27;;;6.50;70.30;;;6.28;58.05;100424.56;4998621;28;20061;-84
2021/04/09 05:38:00;;;;;;;13.43;8.00;;;6.60;70.30;;;6.33;58.50;100430.34;4998957;28;20042;-85
2021/04/09 05:40:26;;;;;;;17.63;8.20;;;6.60;70.70;;;6.35;57.83;100428.34;4999325;28;20338;-84
2021/04/09 05:42:57;;;;;;;15.25;8.75;;;6.60;70.70;;;6.37;58.52;100431.72;4998406;28;20589;-84
2021/04/09 05:45:25;;;;;;;15.18;8.18;;;6.60;70.60;;;6.34;58.43;100426.63;4997743;28;20050;-85
2021/04/09 05:47:52;;;;;;;15.70;7.63;;;6.60;70.50;;;6.40;57.99;100421.44;4997146;28;20046;-84
2021/04/09 05:50:19;;;;;;;14.93;8.35;;;6.70;70.20;;;6.43;58.48;100425.69;4998740;28;20081;-84
2021/04/09 05:52:47;;;;;;;17.60;8.18;;;6.70;70.30;;;6.39;57.29;100430.53;4998383;28;20046;-84
2021/04/09 05:55:14;;;;;;;16.75;8.23;;;6.70;70.10;;;6.39;58.62;100424.31;4996791;28;20101;-84
2021/04/09 05:57:41;;;;;;;17.77;8.05;;;6.80;70.20;;;6.38;58.19;100425.31;4998423;28;20042;-84
2021/04/09 06:00:13;;;;;;;16.35;8.25;;;6.80;69.80;;;6.42;58.13;100418.59;4997304;28;20069;-84
2021/04/09 06:02:41;;;;;;;17.23;8.02;;;6.90;69.90;;;6.48;58.75;100422.50;4998858;28;20038;-84
2021/04/09 06:05:09;;;;;;;16.20;8.43;;;6.90;70.00;;;6.48;58.43;100412.53;4998467;28;20050;-85
2021/04/09 06:07:36;;;;;;;15.63;9.02;;;6.90;70.20;;;6.50;58.03;100415.09;4998750;28;20050;-84
2021/04/09 06:10:05;;;;;;;17.85;8.50;;;7.00;69.60;;;6.46;57.38;100420.78;4996994;28;20058;-85
2021/04/09 06:12:32;;;;;;;15.85;8.57;;;7.10;69.20;;;6.46;58.04;100415.38;4997630;28;20133;-84
2021/04/09 06:15:00;;;;;;;13.32;7.60;;;7.10;68.80;;;6.53;58.16;100414.75;4996867;28;20046;-83
2021/04/09 06:17:26;;;;;;;18.77;9.05;;;7.20;68.90;;;6.51;58.07;100422.16;4993511;28;20046;-82
2021/04/09 06:19:54;;;;;;;14.07;7.82;;;7.30;68.60;;;6.56;57.86;100415.28;4993211;28;20124;-82
2021/04/09 06:22:21;;;;;;;18.70;8.45;;;7.40;68.50;;;6.60;58.25;100416.63;4993625;28;20498;-82
2021/04/09 06:24:48;;;;;;;13.27;7.88;;;7.50;68.50;;;6.66;58.39;100415.16;4995508;28;20042;-82
2021/04/09 06:27:14;;;;;;;15.68;7.97;;;7.50;68.60;;;6.73;58.37;100409.94;4996408;28;20046;-84
2021/04/09 06:29:42;;;;;;;18.30;8.75;;;7.50;68.80;;;6.76;58.71;100413.19;4996718;28;20050;-80
2021/04/09 06:32:09;;;;;;;16.50;8.00;;;7.50;68.80;;;6.83;58.38;100416.06;4994254;28;20042;-79
2021/04/09 06:34:36;;;;;;;13.00;7.85;;;7.60;68.80;;;6.84;58.53;100417.78;4994563;28;20545;-79
2021/04/09 06:37:04;;;;;;;13.98;8.07;;;7.70;68.30;;;6.85;57.88;100416.75;4995096;28;20039;-80
2021/04/09 06:39:30;;;;;;;17.55;8.30;;;7.70;67.50;;;6.90;58.11;100411.72;4981246;28;20096;-80
2021/04/09 06:41:58;;;;;;;16.17;7.50;;;7.80;67.80;;;6.93;57.43;100413.22;4992432;28;20072;-79
2021/04/09 06:44:25;;;;;;;17.65;8.20;;;7.80;67.40;;;6.97;57.12;100407.34;4993710;28;20054;-80
2021/04/09 06:46:52;;;;;;;15.32;7.55;;;7.90;67.50;;;7.01;58.56;100405.16;4989007;28;20146;-80
2021/04/09 06:49:19;;;;;;;17.70;7.30;;;8.00;67.90;;;7.06;57.53;100413.63;4991951;28;20045;-80
2021/04/09 06:51:46;;;;;;;18.92;7.50;;;8.10;67.40;;;7.09;57.44;100413.28;4992755;28;20057;-80
2021/04/09 06:54:16;;;;;;;15.63;7.15;;;8.10;66.80;;;7.15;57.28;100411.78;4992368;28;20042;-80
2021/04/09 06:56:46;;;;;;;13.23;7.03;;;8.20;66.90;;;7.19;58.13;100408.56;4989124;28;20644;-79
2021/04/09 06:59:16;;;;;;;14.18;8.05;;;8.30;66.70;;;7.24;57.01;100400.81;4989330;28;20074;-79
2021/04/09 07:01:46;;;;;;;17.35;7.85;;;8.40;66.10;;;7.26;58.48;100400.66;4984639;28;20122;-79
2021/04/09 07:04:14;;;;;;;14.00;7.47;;;8.50;66.50;;;7.32;57.71;100399.97;4992212;28;20050;-79
2021/04/09 07:06:41;;;;;;;18.48;7.60;;;8.50;66.20;;;7.39;57.73;100403.72;4992533;28;20118;-79
2021/04/09 07:09:08;;;;;;;18.67;7.43;;;8.60;65.90;;;7.47;58.34;100399.34;4993841;28;20080;-79
2021/04/09 07:11:38;;;;;;;13.75;7.03;;;8.70;65.90;;;7.53;58.34;100401.38;4992789;28;20057;-79
2021/04/09 07:14:05;;;;;;;14.63;6.90;;;8.80;66.30;;;7.60;57.76;100394.28;4991965;28;20046;-79
2021/04/09 07:16:33;;;;;;;16.50;7.55;;;8.90;65.50;;;7.66;57.46;100404.44;4993679;28;20077;-80
2021/04/09 07:19:04;;;;;;;14.85;7.32;;;9.00;64.80;;;7.73;56.85;100410.00;4992619;28;20034;-80
2021/04/09 07:21:33;;;;;;;17.00;7.32;;;9.10;64.60;;;7.78;56.20;100400.34;4993792;28;20050;-80
2021/04/09 07:24:21;;;;;;;13.43;6.95;;;9.20;63.60;;;7.83;57.19;100398.00;4992710;28;20038;-80
2021/04/09 07:26:52;;;;;;;13.15;7.07;;;9.20;63.90;;;7.89;57.65;100399.19;4993211;28;20042;-82
2021/04/09 07:29:37;;;;;;;17.10;8.02;;;9.30;65.20;;;7.95;56.96;100390.38;4991583;28;20053;-80
2021/04/09 07:32:29;;;;;;;17.30;8.30;;;9.40;64.20;;;8.02;57.34;100395.97;4992746;28;20046;-80
2021/04/09 07:35:02;;;;;;;17.52;7.03;;;9.50;63.90;;;8.08;57.72;100389.84;4993293;28;20048;-80
2021/04/09 07:37:31;;;;;;;15.88;7.40;;;9.60;64.40;;;8.12;56.61;100395.78;4993183;28;20129;-80
2021/04/09 07:40:01;;;;;;;16.40;6.85;;;9.60;63.20;;;8.16;56.51;100389.00;4992527;28;20062;-80
2021/04/09 07:42:35;;;;;;;17.40;8.35;;;9.70;62.90;;;8.20;56.23;100393.88;4991057;28;20446;-80
2021/04/09 07:45:08;;;;;;;15.35;8.10;;;9.70;63.00;;;8.24;57.00;100386.25;4997010;28;20042;-80
2021/04/09 07:47:36;;;;;;;16.48;8.82;;;9.70;63.90;;;8.27;56.52;100393.22;4997697;28;20101;-81
2021/04/09 07:50:10;;;;;;;16.55;8.52;;;9.70;63.50;;;8.31;55.88;100389.13;4996640;28;20109;-83
2021/04/09 07:52:48;;;;;;;15.85;7.53;;;9.80;62.40;;;8.34;56.46;100383.34;4993434;28;20074;-82
2021/04/09 07:55:22;;;;;;;15.65;7.60;;;9.80;63.50;;;8.41;57.81;100393.38;4993658;28;20562;-83
2021/04/09 07:57:51;;;;;;;14.45;7.55;;;9.90;64.30;;;8.45;56.58;100387.59;4992637;28;20057;-83
2021/04/09 08:00:24;;;;;;;16.00;7.90;;;10.00;63.10;;;8.50;58.22;100383.34;4993480;28;20050;-83
2021/04/09 08:02:53;;;;;;;16.23;7.53;;;10.00;63.50;;;8.57;56.84;100378.91;4992733;28;20073;-84
2021/04/09 08:05:24;;;;;;;14.25;7.88;;;10.10;62.80;;;8.63;55.85;100373.81;4993830;28;20177;-83
2021/04/09 08:07:53;;;;;;;17.25;8.43;;;10.10;61.90;;;8.68;55.84;100384.97;4992789;28;20054;-83
2021/04/09 08:10:27;;;;;;;15.23;7.43;;;10.20;62.90;;;8.68;55.92;100379.56;4996082;28;20038;-82
2021/04/09 08:12:57;;;;;;;20.60;8.20;;;10.20;61.60;;;8.70;55.86;100380.22;4995543;28;20058;-82
2021/04/09 08:15:27;;;;;;;16.88;7.40;;;10.20;61.60;;;8.73;56.77;100378.00;4998276;28;20109;-84
2021/04/09 08:18:04;;;;;;;15.95;7.55;;;10.30;62.60;;;8.80;55.90;100383.59;4994553;28;20077;-89
2021/04/09 08:20:34;;;;;;;14.48;7.57;;;10.30;61.70;;;8.88;55.69;100385.41;4995091;28;20039;-82
2021/04/09 08:23:05;;;;;;;14.48;7.13;;;10.40;62.30;;;8.91;55.76;100382.31;4992098;28;20573;-85
2021/04/09 08:25:34;;;;;;;14.70;7.03;;;10.50;62.20;;;8.87;56.54;100384.56;4995649;28;20077;-86
2021/04/09 08:28:06;;;;;;;16.08;7.95;;;10.50;62.30;;;8.91;58.09;100385.91;4994066;28;20043;-85
2021/04/09 08:30:35;;;;;;;15.02;7.20;;;10.50;63.60;;;8.97;57.49;100379.75;4993395;28;20100;-82
2021/04/09 08:33:03;;;;;;;19.42;7.25;;;10.40;62.90;;;9.07;56.91;100384.97;4993546;28;20081;-83
2021/04/09 08:35:31;;;;;;;14.75;7.75;;;10.60;62.80;;;9.13;55.97;100386.97;4992569;28;20097;-84
2021/04/09 08:38:02;;;;;;;20.13;7.55;;;10.60;61.90;;;9.18;56.37;100384.56;4989496;28;20585;-83
2021/04/09 08:40:29;;;;;;;14.20;7.50;;;10.70;62.30;;;9.23;56.83;100388.63;4991424;28;20057;-83
2021/04/09 08:42:56;;;;;;;12.98;7.10;;;10.80;63.20;;;9.24;56.57;100385.72;4990846;28;20077;-83
2021/04/09 08:45:24;;;;;;;19.90;8.38;;;10.80;62.50;;;9.24;56.83;100391.16;4992551;28;20050;-83
2021/04/09 08:47:56;;;;;;;16.20;7.10;;;10.80;62.00;;;9.27;56.47;100384.50;4992094;28;20116;-83
2021/04/09 08:50:23;;;;;;;17.27;7.85;;;10.80;62.20;;;9.28;55.91;100387.06;4992374;28;20050;-83
2021/04/09 08:52:51;;;;;;;17.48;7.40;;;10.90;61.80;;;9.37;56.72;100375.13;4990072;28;20710;-83
2021/04/09 08:55:18;;;;;;;14.65;7.05;;;10.90;62.60;;;9.42;56.92;100373.72;4990702;28;20069;-83
2021/04/09 08:57:46;;;;;;;16.27;7.22;;;11.00;62.30;;;9.53;57.67;100374.13;4991354;28;20067;-83
2021/04/09 09:00:18;;;;;;;15.10;7.65;;;11.10;63.10;;;9.56;56.49;100368.34;4991349;28;20732;-83
2021/04/09 09:02:52;;;;;;;14.85;7.68;;;11.20;61.90;;;9.62;55.88;100374.09;4990900;28;20046;-84
2021/04/09 09:05:21;;;;;;;14.85;7.28;;;11.20;61.40;;;9.67;56.97;100368.94;4990653;28;20415;-83
2021/04/09 09:08:06;;;;;;;17.13;7.47;;;11.30;62.10;;;9.69;55.41;100375.03;4987456;28;20054;-83
2021/04/09 09:10:58;;;;;;;15.75;6.88;;;11.30;61.00;;;9.71;56.04;100368.41;4990115;28;20054;-83
2021/04/09 09:13:29;;;;;;;13.63;6.72;;;11.30;61.40;;;9.77;56.02;100364.97;4991231;28;20073;-84
2021/04/09 09:16:12;;;;;;;;;;;11.40;61.60;;;9.80;56.50;100363.72;4991484;28;20047;-83
2021/04/09 09:18:55;;;;;;;15.10;7.68;;;11.40;61.60;;;9.83;56.30;100374.25;4991498;28;19940;-83
2021/04/09 09:21:38;;;;;;;14.30;6.97;;;11.50;61.80;;;9.79;55.77;100381.91;4991537;28;20073;-84
2021/04/09 09:24:18;;;;;;;18.17;6.55;;;11.50;61.10;;;9.77;56.42;100383.97;4988958;28;20042;-83
2021/04/09 09:26:46;;;;;;;14.05;7.13;;;11.40;60.50;;;9.76;56.03;100373.28;4989427;28;20351;-83
2021/04/09 09:29:20;;;;;;;17.00;7.40;;;11.40;60.80;;;9.82;57.47;100367.09;4989967;28;20294;-83
2021/04/09 09:31:59;;;;;;;14.02;6.57;;;11.40;62.50;;;9.85;55.22;100365.91;4990977;28;20057;-83
2021/04/09 09:34:45;;;;;;;15.88;7.05;;;11.50;61.10;;;9.83;56.24;100368.81;4988667;28;20048;-83
2021/04/09 09:37:18;;;;;;;11.88;6.88;;;11.50;61.40;;;9.90;56.60;100374.34;4990345;28;20050;-83
2021/04/09 09:39:51;;;;;;;12.85;6.78;;;11.50;61.70;;;9.95;56.67;100371.94;4989743;28;20057;-83
2021/04/09 09:42:45;;;;;;;16.15;7.28;;;11.60;62.00;;;10.02;58.99;100364.72;4990441;28;20849;-83
2021/04/09 09:45:33;;;;;;;14.93;7.43;;;11.60;63.30;;;10.09;55.90;100375.69;4989003;28;20084;-83
2021/04/09 09:48:15;;;;;;;17.88;7.38;;;11.70;61.30;;;10.12;57.92;100370.75;4991109;28;20049;-83
2021/04/09 09:50:44;;;;;;;15.57;7.15;;;11.80;62.30;;;10.18;57.28;100366.44;4990555;28;20052;-83
2021/04/09 09:53:12;;;;;;;13.93;7.18;;;11.80;62.40;;;10.21;56.80;100365.25;4989837;28;20042;-83
2021/04/09 09:55:40;;;;;;;11.25;6.47;;;11.80;61.50;;;10.25;56.37;100366.56;4990386;28;20038;-83
2021/04/09 09:58:12;;;;;;;11.05;6.10;;;11.90;61.70;;;10.30;55.88;100358.66;4989980;28;20045;-83
2021/04/09 10:00:42;;;;;;;16.20;6.85;;;11.90;60.90;;;10.30;57.01;100362.28;4990254;28;20046;-83
2021/04/09 10:03:20;;;;;;;14.82;6.75;;;11.90;61.70;;;10.41;57.49;100355.50;4989433;28;20773;-83
2021/04/09 10:05:50;;;;;;;12.35;6.60;;;12.00;61.50;;;10.39;55.57;100360.28;4990379;28;20198;-83
2021/04/09 10:08:18;;;;;;;14.85;6.63;;;12.10;60.00;;;10.42;57.12;100362.66;4989593;28;20050;-82
2021/04/09 10:10:49;;;;;;;12.75;6.75;;;12.10;61.40;;;10.43;55.57;100358.88;4989266;28;20134;-82
2021/04/09 10:13:26;;;;;;;13.35;7.07;;;12.10;60.40;;;10.43;56.43;100358.88;4988838;28;20077;-82
2021/04/09 10:15:55;;;;;;;14.32;7.35;;;12.10;61.20;;;10.46;55.49;100357.69;4988737;28;20076;-82
2021/04/09 10:18:22;;;;;;;11.88;6.22;;;12.10;59.90;;;10.51;55.71;100366.97;4990292;28;20050;-83
2021/04/09 10:20:51;;;;;;;12.15;6.63;;;12.20;60.40;;;10.50;54.91;100356.25;4989478;28;20499;-83
2021/04/09 10:23:27;;;;;;;12.57;6.75;;;12.20;59.50;;;10.53;55.83;100354.00;4987839;28;20078;-83
2021/04/09 10:25:54;;;;;;;12.75;6.10;;;12.20;60.30;;;10.53;55.04;100353.19;4989479;28;20054;-82
2021/04/09 10:28:21;;;;;;;17.58;6.97;;;12.20;59.80;;;10.54;55.86;100361.13;4990165;28;20050;-82
2021/04/09 10:30:52;;;;;;;17.70;7.30;;;12.20;60.40;;;10.55;55.82;100351.09;4990622;28;20054;-82